Terminal Aerodrome Forecast
Issued by NWS

Home | Current Version | Previous Version | Text Only | Print | Product List | Glossary On
Versions: 1 2 3 4 5 6 7 8 9 10 11 12 13 14 15 16
000
FTUS41 KPHI 281733
TAFPNE
TAF
KPNE 281733Z 2818/2918 24004KT P6SM SCT045
     FM290100 22004KT P6SM SCT250
      TEMPO 2909/2912 5SM HZ
     FM291300 23006KT P6SM SCT045=

USA.gov is the U.S. government's official web portal to all federal, state and local government web resources and services.